Time;durP1;ratioP1;P1;durP2;ratioP2;P2;SDS_P1;SDS_P2;PMS_P1;PMS_P2;Temp;Humidity;BMP_temperature;BMP_pressure;BME280_temperature;BME280_humidity;BME280_pressure;Samples;Min_cycle;Max_cycle;Signal;HPM_P1;HPM_P2
2022/11/14 00:00:51;;;;;;;12.57;8.70;;;;;;;8.14;38.94;101167.19;4891333;29;20124;-68
2022/11/14 00:03:38;;;;;;;11.27;8.10;;;;;;;8.11;38.84;101159.19;4892541;29;20095;-69
2022/11/14 00:06:26;;;;;;;12.35;8.27;;;;;;;8.10;38.94;101158.31;4886028;29;20372;-69
2022/11/14 00:09:12;;;;;;;11.95;8.23;;;;;;;8.06;39.12;101172.28;4888690;29;20139;-69
2022/11/14 00:11:58;;;;;;;12.15;8.15;;;;;;;8.03;38.78;101167.91;4887218;29;20103;-69
2022/11/14 00:14:45;;;;;;;11.25;7.85;;;;;;;8.00;38.84;101159.09;4889539;29;20119;-69
2022/11/14 00:17:31;;;;;;;12.05;7.90;;;;;;;7.98;38.95;101169.22;4891159;29;20163;-70
2022/11/14 00:20:17;;;;;;;10.57;8.02;;;;;;;7.94;39.11;101164.00;4892078;29;20075;-69
2022/11/14 00:23:05;;;;;;;11.52;8.02;;;;;;;7.91;39.35;101150.59;4887445;29;20056;-69
2022/11/14 00:25:51;;;;;;;11.15;7.95;;;;;;;7.89;39.26;101148.97;4892686;29;20054;-68
2022/11/14 00:28:40;;;;;;;10.32;7.55;;;;;;;7.87;39.42;101142.75;4890657;29;20052;-69
2022/11/14 00:31:26;;;;;;;11.35;7.95;;;;;;;7.83;39.33;101147.56;4889712;29;20104;-69
2022/11/14 00:34:12;;;;;;;9.98;6.93;;;;;;;7.81;39.33;101148.63;4891926;29;20056;-69
2022/11/14 00:36:58;;;;;;;10.48;7.35;;;;;;;7.79;39.30;101148.75;4887192;29;20057;-70
2022/11/14 00:39:46;;;;;;;9.73;6.85;;;;;;;7.78;39.37;101140.66;4887236;29;20610;-69
2022/11/14 00:42:33;;;;;;;10.05;6.72;;;;;;;7.75;39.12;101144.50;4890292;29;20151;-70
2022/11/14 00:45:20;;;;;;;10.23;7.50;;;;;;;7.73;39.14;101141.00;4891616;29;20196;-69
2022/11/14 00:48:06;;;;;;;9.35;6.68;;;;;;;7.71;39.14;101142.97;4888288;29;20052;-69
2022/11/14 00:50:53;;;;;;;10.80;7.03;;;;;;;7.70;39.44;101140.34;4890368;29;20541;-69
2022/11/14 00:53:39;;;;;;;10.88;7.60;;;;;;;7.65;39.41;101128.91;4895325;29;20047;-68
2022/11/14 00:56:28;;;;;;;10.15;7.25;;;;;;;7.64;39.27;101133.50;4885139;29;20067;-69
2022/11/14 00:59:14;;;;;;;10.02;7.30;;;;;;;7.60;39.50;101128.38;4896868;29;20077;-69
2022/11/14 01:02:01;;;;;;;10.23;7.45;;;;;;;7.56;39.19;101120.41;4886857;29;20188;-69
2022/11/14 01:04:47;;;;;;;9.82;6.75;;;;;;;7.55;39.47;101121.41;4883503;29;20047;-69
2022/11/14 01:07:34;;;;;;;9.40;6.53;;;;;;;7.51;39.12;101114.44;4888272;29;20560;-69
2022/11/14 01:10:20;;;;;;;8.77;6.57;;;;;;;7.50;39.04;101122.72;4882810;29;20617;-69
2022/11/14 01:13:09;;;;;;;9.57;6.82;;;;;;;7.49;39.25;101113.66;4882389;29;20072;-69
2022/11/14 01:16:01;;;;;;;9.60;6.97;;;;;;;7.47;39.30;101107.44;4887512;29;20067;-68
2022/11/14 01:18:47;;;;;;;9.45;6.20;;;;;;;7.43;39.22;101105.94;4889891;29;20136;-69
2022/11/14 01:21:33;;;;;;;8.75;6.45;;;;;;;7.41;39.11;101098.84;4890486;29;20437;-69
2022/11/14 01:24:20;;;;;;;9.52;6.68;;;;;;;7.39;39.07;101098.94;4889223;29;20060;-68
2022/11/14 01:27:06;;;;;;;9.85;5.97;;;;;;;7.37;39.26;101095.47;4889037;29;20056;-68
2022/11/14 01:29:54;;;;;;;9.13;6.57;;;;;;;7.38;39.45;101093.59;4897775;29;20063;-68
2022/11/14 01:32:41;;;;;;;8.70;6.53;;;;;;;7.33;39.43;101087.63;4894387;29;20063;-68
2022/11/14 01:35:27;;;;;;;8.48;6.57;;;;;;;7.32;39.41;101089.47;4890688;29;20413;-69
2022/11/14 01:38:15;;;;;;;10.63;7.63;;;;;;;7.29;39.13;101080.63;4889105;29;20423;-69
2022/11/14 01:41:01;;;;;;;8.73;6.68;;;;;;;7.26;39.20;101073.59;4882269;29;20357;-69
2022/11/14 01:43:49;;;;;;;10.30;6.70;;;;;;;7.24;39.06;101069.22;4888724;29;20176;-70
2022/11/14 01:46:40;;;;;;;9.48;6.43;;;;;;;7.22;39.27;101061.16;4888360;29;20080;-69
2022/11/14 01:49:34;;;;;;;10.75;6.60;;;;;;;7.20;39.35;101057.66;4891000;29;20130;-69
2022/11/14 01:52:25;;;;;;;9.95;7.20;;;;;;;7.16;39.38;101058.88;4886549;29;20055;-69
2022/11/14 01:55:11;;;;;;;9.48;6.95;;;;;;;7.13;39.38;101051.78;4889506;29;20137;-69
2022/11/14 01:57:59;;;;;;;9.98;6.72;;;;;;;7.11;39.45;101051.00;4886098;29;20063;-69
2022/11/14 02:00:45;;;;;;;9.60;6.47;;;;;;;7.08;39.38;101044.94;4886964;29;20124;-69
2022/11/14 02:03:40;;;;;;;8.75;5.90;;;;;;;7.08;39.54;101047.66;4883617;29;20114;-68
2022/11/14 02:06:30;;;;;;;8.13;5.70;;;;;;;7.06;39.58;101050.47;4887246;29;20051;-69
2022/11/14 02:09:16;;;;;;;8.05;5.93;;;;;;;7.04;39.68;101054.25;4890721;29;20576;-69
2022/11/14 02:12:05;;;;;;;9.23;5.97;;;;;;;7.02;39.58;101054.41;4893074;29;20071;-69
2022/11/14 02:14:56;;;;;;;9.48;6.40;;;;;;;7.02;39.71;101051.69;4891530;29;20185;-69
2022/11/14 02:17:44;;;;;;;8.45;5.82;;;;;;;6.99;39.81;101060.03;4891372;29;20127;-68
2022/11/14 02:20:36;;;;;;;9.50;5.90;;;;;;;6.99;39.63;101054.59;4898068;29;20055;-69
2022/11/14 02:23:26;;;;;;;8.70;6.18;;;;;;;6.99;39.50;101053.72;4892610;29;20096;-69
2022/11/14 02:26:13;;;;;;;7.78;5.45;;;;;;;6.95;39.57;101044.91;4893644;29;20063;-68
2022/11/14 02:28:59;;;;;;;7.47;5.40;;;;;;;6.95;39.72;101044.91;4891740;29;20078;-69
2022/11/14 02:31:46;;;;;;;8.25;6.15;;;;;;;6.96;39.49;101048.50;4891337;29;20128;-68
2022/11/14 02:34:32;;;;;;;8.10;6.38;;;;;;;6.95;39.38;101044.91;4889017;29;20100;-70
2022/11/14 02:37:20;;;;;;;8.88;6.10;;;;;;;6.95;39.38;101044.91;4887608;29;20375;-68
2022/11/14 02:40:08;;;;;;;9.52;5.75;;;;;;;6.94;39.38;101034.97;4881307;29;20558;-69
2022/11/14 02:42:54;;;;;;;7.60;5.30;;;;;;;6.92;39.44;101036.97;4893148;29;20103;-69
2022/11/14 02:45:41;;;;;;;8.10;6.03;;;;;;;6.92;39.54;101036.09;4891163;29;20051;-70
2022/11/14 02:48:27;;;;;;;8.52;6.05;;;;;;;6.90;39.46;101030.75;4885555;29;20047;-70
2022/11/14 02:51:14;;;;;;;8.57;5.75;;;;;;;6.90;39.44;101028.03;4889710;29;20101;-68
2022/11/14 02:54:03;;;;;;;8.07;5.57;;;;;;;6.90;39.61;101017.16;4892301;29;20060;-70
2022/11/14 02:56:50;;;;;;;9.48;5.53;;;;;;;6.88;39.53;101012.78;4890349;29;20132;-70
2022/11/14 02:59:36;;;;;;;8.50;5.50;;;;;;;6.87;39.59;101019.19;4892483;29;20408;-70
2022/11/14 03:02:23;;;;;;;8.32;5.43;;;;;;;6.85;39.48;101019.31;4887532;29;20434;-69
2022/11/14 03:05:09;;;;;;;7.78;5.90;;;;;;;6.83;39.40;101015.84;4893220;29;20533;-69
2022/11/14 03:07:56;;;;;;;8.40;5.82;;;;;;;6.82;39.36;101017.69;4890504;29;20052;-69
2022/11/14 03:10:44;;;;;;;7.70;5.65;;;;;;;6.80;39.38;101016.03;4889080;29;20136;-69
2022/11/14 03:13:30;;;;;;;7.70;5.32;;;;;;;6.77;39.57;101014.41;4891003;29;20051;-69
2022/11/14 03:16:16;;;;;;;7.60;5.25;;;;;;;6.76;39.53;101009.97;4892644;29;20533;-69
2022/11/14 03:19:03;;;;;;;7.40;5.22;;;;;;;6.74;39.33;101009.19;4891484;29;20058;-69
2022/11/14 03:21:49;;;;;;;7.20;5.47;;;;;;;6.73;39.40;100998.38;4889091;29;21267;-70
2022/11/14 03:24:36;;;;;;;8.07;5.63;;;;;;;6.72;39.44;100991.19;4886763;29;20577;-70
2022/11/14 03:27:23;;;;;;;8.38;6.00;;;;;;;6.73;39.35;100996.53;4880824;29;20656;-70
2022/11/14 03:30:11;;;;;;;7.65;5.15;;;;;;;6.70;39.46;100988.56;4899897;29;20601;-70
2022/11/14 03:32:58;;;;;;;7.07;4.97;;;;;;;6.71;39.50;100994.88;4894302;29;20060;-70
2022/11/14 03:35:44;;;;;;;7.22;5.10;;;;;;;6.68;39.26;100990.53;4892945;29;20064;-70
2022/11/14 03:38:31;;;;;;;7.28;5.15;;;;;;;6.68;39.38;100986.94;4894764;29;20093;-70
2022/11/14 03:41:17;;;;;;;8.13;5.32;;;;;;;6.67;39.50;100988.78;4885003;29;20088;-69
2022/11/14 03:44:05;;;;;;;6.53;4.93;;;;;;;6.66;39.56;100991.63;4890297;29;20158;-69
2022/11/14 03:46:52;;;;;;;8.25;5.25;;;;;;;6.63;39.52;100989.97;4890757;29;20127;-69
2022/11/14 03:49:38;;;;;;;7.43;5.13;;;;;;;6.62;39.46;100990.94;4885642;29;20080;-69
2022/11/14 03:52:25;;;;;;;6.72;4.60;;;;;;;6.60;39.28;100984.75;4885225;29;20188;-69
2022/11/14 03:55:11;;;;;;;7.82;4.82;;;;;;;6.60;39.33;100986.63;4890466;29;20132;-69
2022/11/14 03:57:58;;;;;;;7.25;4.30;;;;;;;6.58;39.16;100983.13;4889700;29;20512;-69
2022/11/14 04:00:45;;;;;;;7.18;4.50;;;;;;;6.57;39.62;100987.69;4890781;29;20181;-69
2022/11/14 04:03:32;;;;;;;6.45;4.30;;;;;;;6.56;39.45;100979.63;4891432;29;20478;-69
2022/11/14 04:06:18;;;;;;;5.95;4.35;;;;;;;6.55;39.74;100986.03;4889314;29;20479;-69
2022/11/14 04:09:04;;;;;;;6.97;4.55;;;;;;;6.54;39.67;100982.44;4890621;29;20143;-69
2022/11/14 04:11:51;;;;;;;6.75;4.40;;;;;;;6.55;39.32;100975.16;4892298;29;20120;-69
2022/11/14 04:14:37;;;;;;;7.55;4.63;;;;;;;6.54;39.74;100981.56;4888642;29;20184;-69
2022/11/14 04:17:25;;;;;;;7.43;4.63;;;;;;;6.56;39.70;100974.19;4889734;29;20043;-70
2022/11/14 04:20:12;;;;;;;7.28;4.85;;;;;;;6.54;39.73;100968.84;4890904;29;20135;-69
2022/11/14 04:22:59;;;;;;;6.65;4.43;;;;;;;6.52;39.73;100968.09;4888786;29;20108;-70
2022/11/14 04:25:46;;;;;;;6.72;4.40;;;;;;;6.54;39.73;100968.84;4887544;29;20390;-69
2022/11/14 04:28:32;;;;;;;6.20;4.22;;;;;;;6.52;39.73;100962.66;4886710;29;20330;-68
2022/11/14 04:31:18;;;;;;;4.88;3.85;;;;;;;6.51;39.68;100960.94;4882750;29;20145;-70
2022/11/14 04:34:06;;;;;;;6.68;4.18;;;;;;;6.53;39.79;100963.53;4890425;29;20063;-70
2022/11/14 04:36:52;;;;;;;5.60;3.80;;;;;;;6.50;39.94;100961.03;4892577;29;20056;-70
2022/11/14 04:39:39;;;;;;;6.13;3.45;;;;;;;6.50;39.69;100963.75;4893869;29;20068;-70
2022/11/14 04:42:25;;;;;;;5.75;3.40;;;;;;;6.48;39.77;100977.44;4888686;29;20570;-70
2022/11/14 04:45:11;;;;;;;5.82;3.75;;;;;;;6.49;39.85;100967.44;4881672;29;20052;-71
2022/11/14 04:47:58;;;;;;;6.22;3.95;;;;;;;6.49;39.73;100964.72;4887339;29;20059;-70
2022/11/14 04:50:46;;;;;;;5.65;4.00;;;;;;;6.51;40.02;100968.22;4888167;29;20056;-70
2022/11/14 04:53:33;;;;;;;5.07;3.55;;;;;;;6.48;39.83;100961.13;4885097;29;20064;-70
2022/11/14 04:56:21;;;;;;;5.50;3.67;;;;;;;6.48;39.99;100966.56;4890597;29;20453;-70
2022/11/14 04:59:10;;;;;;;5.78;3.72;;;;;;;6.48;39.99;100960.25;4890413;29;20055;-70
2022/11/14 05:02:03;;;;;;;6.07;4.03;;;;;;;6.47;39.90;100958.50;4890778;29;20673;-70
2022/11/14 05:04:50;;;;;;;5.35;3.45;;;;;;;6.47;39.92;100958.50;4887875;29;20063;-70
2022/11/14 05:07:37;;;;;;;5.53;3.80;;;;;;;6.49;40.10;100957.44;4889458;29;20399;-71
2022/11/14 05:10:24;;;;;;;5.10;3.20;;;;;;;6.48;40.12;100952.09;4886996;29;20165;-70
2022/11/14 05:13:10;;;;;;;4.95;3.33;;;;;;;6.48;40.17;100950.25;4887883;29;20135;-71
2022/11/14 05:15:58;;;;;;;6.05;3.50;;;;;;;6.50;40.12;100944.72;4889824;29;20450;-70
2022/11/14 05:18:45;;;;;;;6.15;3.75;;;;;;;6.49;40.29;100948.41;4890483;29;20062;-70
2022/11/14 05:21:32;;;;;;;4.90;3.42;;;;;;;6.49;40.27;100943.84;4889925;29;20082;-70
2022/11/14 05:24:20;;;;;;;5.25;3.42;;;;;;;6.51;40.30;100943.75;4890091;29;20059;-70
2022/11/14 05:27:07;;;;;;;5.38;3.67;;;;;;;6.51;40.30;100941.88;4888752;29;20100;-70
2022/11/14 05:29:54;;;;;;;5.22;3.40;;;;;;;6.50;40.42;100940.16;4893532;29;20417;-70
2022/11/14 05:32:41;;;;;;;5.72;3.88;;;;;;;6.49;40.19;100932.97;4882832;29;20066;-71
2022/11/14 05:35:27;;;;;;;6.00;3.80;;;;;;;6.50;40.38;100932.00;4890121;29;20520;-71
2022/11/14 05:38:14;;;;;;;4.93;3.85;;;;;;;6.50;40.59;100923.84;4884218;29;20544;-71
2022/11/14 05:41:05;;;;;;;5.88;3.60;;;;;;;6.52;40.80;100918.28;4887293;29;20056;-70
2022/11/14 05:43:51;;;;;;;5.85;3.72;;;;;;;6.50;40.25;100925.69;4890500;29;20060;-71
2022/11/14 05:46:38;;;;;;;5.90;3.65;;;;;;;6.50;40.66;100920.25;4877926;29;20047;-71
2022/11/14 05:49:24;;;;;;;5.03;3.60;;;;;;;6.50;40.48;100923.84;4891150;29;20066;-70
2022/11/14 05:52:13;;;;;;;5.53;3.65;;;;;;;6.51;40.69;100920.13;4891168;29;20052;-71
2022/11/14 05:54:59;;;;;;;5.68;3.92;;;;;;;6.51;40.81;100922.84;4873848;29;20080;-70
2022/11/14 05:57:47;;;;;;;6.28;3.90;;;;;;;6.53;40.77;100920.03;4886998;29;20055;-70
2022/11/14 06:00:34;;;;;;;6.82;3.97;;;;;;;6.53;40.87;100920.03;4877236;29;20274;-70
2022/11/14 06:03:33;;;;;;;5.97;3.83;;;;;;;6.54;40.77;100916.31;4890111;29;20255;-70
2022/11/14 06:06:21;;;;;;;7.03;4.43;;;;;;;6.55;40.90;100915.34;4882276;29;20121;-70
2022/11/14 06:09:08;;;;;;;6.15;3.83;;;;;;;6.55;41.01;100909.91;4885661;29;20627;-71
2022/11/14 06:11:54;;;;;;;6.72;3.90;;;;;;;6.56;40.85;100909.81;4878165;29;20140;-71
2022/11/14 06:14:42;;;;;;;5.38;3.60;;;;;;;6.59;40.87;100903.28;4887859;29;20060;-70
2022/11/14 06:17:28;;;;;;;5.30;3.88;;;;;;;6.58;40.99;100909.69;4887550;29;20056;-71
2022/11/14 06:20:14;;;;;;;6.00;3.88;;;;;;;6.59;40.90;100906.00;4886552;29;20135;-71
2022/11/14 06:23:01;;;;;;;6.38;3.85;;;;;;;6.59;40.79;100909.59;4887937;29;20092;-71
2022/11/14 06:25:47;;;;;;;7.05;3.95;;;;;;;6.58;41.08;100907.84;4891339;29;20057;-71
2022/11/14 06:28:34;;;;;;;7.30;3.85;;;;;;;6.60;40.99;100910.47;4889941;29;20507;-71
2022/11/14 06:31:24;;;;;;;6.90;4.05;;;;;;;6.60;40.88;100900.47;4889652;29;20331;-71
2022/11/14 06:34:11;;;;;;;5.40;4.03;;;;;;;6.59;40.60;100912.31;4890467;29;20136;-71
2022/11/14 06:37:00;;;;;;;7.53;4.53;;;;;;;6.59;40.98;100904.16;4882656;29;20267;-72
2022/11/14 06:39:47;;;;;;;6.35;4.03;;;;;;;6.57;40.85;100913.41;4887014;29;20055;-72
2022/11/14 06:42:33;;;;;;;6.38;4.15;;;;;;;6.58;41.05;100915.13;4888201;29;20159;-72
2022/11/14 06:45:19;;;;;;;5.00;3.88;;;;;;;6.57;40.97;100910.66;4888462;29;20551;-72
2022/11/14 06:48:07;;;;;;;5.70;3.95;;;;;;;6.57;41.41;100922.41;4885462;29;20567;-72
2022/11/14 06:50:55;;;;;;;6.47;4.32;;;;;;;6.56;41.01;100914.38;4889388;29;20056;-72
2022/11/14 06:53:42;;;;;;;6.50;4.00;;;;;;;6.54;41.04;100919.91;4892162;29;20055;-72
2022/11/14 06:56:29;;;;;;;7.10;4.32;;;;;;;6.52;41.18;100919.16;4889831;29;20138;-72
2022/11/14 06:59:17;;;;;;;6.25;4.03;;;;;;;6.51;41.15;100922.00;4886268;29;20056;-72
2022/11/14 07:02:03;;;;;;;8.43;5.25;;;;;;;6.50;41.05;100929.28;4890517;29;20417;-71
2022/11/14 07:04:51;;;;;;;5.72;4.03;;;;;;;6.51;41.29;100930.16;4894106;29;20413;-71
2022/11/14 07:07:37;;;;;;;7.50;4.78;;;;;;;6.47;41.34;100928.59;4891659;29;20066;-71
2022/11/14 07:10:23;;;;;;;7.35;4.47;;;;;;;6.45;41.05;100925.97;4894961;29;20051;-71
2022/11/14 07:13:10;;;;;;;6.10;4.20;;;;;;;6.43;41.22;100923.41;4891518;29;20632;-71
2022/11/14 07:15:57;;;;;;;7.72;4.70;;;;;;;6.42;41.27;100920.78;4883563;29;20414;-71
2022/11/14 07:18:43;;;;;;;8.27;4.80;;;;;;;6.41;41.29;100921.75;4890304;29;20052;-71
2022/11/14 07:21:33;;;;;;;7.40;5.18;;;;;;;6.41;41.53;100927.19;4891002;29;20070;-71
2022/11/14 07:24:19;;;;;;;6.82;4.28;;;;;;;6.39;41.82;100937.28;4890784;29;20068;-71
2022/11/14 07:27:08;;;;;;;6.18;4.10;;;;;;;6.39;41.70;100930.00;4882149;29;20071;-71
2022/11/14 07:29:54;;;;;;;7.10;4.40;;;;;;;6.40;41.81;100933.59;4891167;29;20056;-71
2022/11/14 07:32:40;;;;;;;6.53;4.72;;;;;;;6.40;41.71;100929.03;4885649;29;20056;-71
2022/11/14 07:35:27;;;;;;;7.35;5.25;;;;;;;6.42;41.71;100928.94;4889447;29;20150;-71
2022/11/14 07:38:14;;;;;;;8.35;5.47;;;;;;;6.45;42.06;100931.41;4891573;29;20056;-71
2022/11/14 07:41:03;;;;;;;10.07;5.43;;;;;;;6.48;42.05;100928.50;4891139;29;20524;-71
2022/11/14 07:43:49;;;;;;;6.57;4.45;;;;;;;6.51;42.10;100938.31;4891039;29;20429;-71
2022/11/14 07:46:36;;;;;;;10.73;5.75;;;;;;;6.53;42.15;100937.19;4889278;29;20074;-71
2022/11/14 07:49:22;;;;;;;9.52;5.30;;;;;;;6.57;42.40;100938.75;4890916;29;20051;-71
2022/11/14 07:52:09;;;;;;;7.68;5.35;;;;;;;6.61;42.31;100934.81;4894206;29;20063;-74
2022/11/14 07:54:56;;;;;;;8.77;5.55;;;;;;;6.67;42.44;100936.25;4890597;29;20059;-71
2022/11/14 07:57:43;;;;;;;11.82;5.93;;;;;;;6.70;42.42;100933.28;4889188;29;20055;-71
2022/11/14 08:00:34;;;;;;;8.85;5.43;;;;;;;6.75;42.38;100932.06;4884266;29;20266;-71
2022/11/14 08:03:21;;;;;;;9.85;5.57;;;;;;;6.79;42.33;100932.69;4890745;29;20189;-71
2022/11/14 08:06:10;;;;;;;10.02;5.90;;;;;;;6.85;42.39;100936.84;4887519;29;20369;-71
2022/11/14 08:08:57;;;;;;;8.60;5.78;;;;;;;6.87;42.38;100924.84;4887152;29;20108;-71
2022/11/14 08:11:47;;;;;;;9.05;5.72;;;;;;;6.92;42.31;100928.13;4880668;29;20060;-71
2022/11/14 08:14:34;;;;;;;9.23;6.30;;;;;;;6.93;42.56;100920.84;4888935;29;20104;-71
2022/11/14 08:17:24;;;;;;;9.10;5.93;;;;;;;6.99;42.74;100914.97;4890777;29;20154;-71
2022/11/14 08:20:11;;;;;;;11.40;6.45;;;;;;;7.01;42.16;100924.75;4893127;29;20055;-71
2022/11/14 08:23:03;;;;;;;9.10;6.35;;;;;;;7.05;42.91;100914.50;4893234;29;20059;-72
2022/11/14 08:25:50;;;;;;;9.70;6.53;;;;;;;7.04;42.62;100908.19;4893755;29;20059;-72
2022/11/14 08:28:38;;;;;;;10.15;6.45;;;;;;;7.08;42.54;100909.72;4887073;29;20069;-71
2022/11/14 08:31:24;;;;;;;11.73;6.65;;;;;;;7.09;42.52;100910.59;4889843;29;20385;-71
2022/11/14 08:34:11;;;;;;;9.38;6.13;;;;;;;7.11;42.53;100917.66;4891181;29;20135;-71
2022/11/14 08:36:57;;;;;;;11.02;6.90;;;;;;;7.12;42.51;100897.63;4890470;29;20542;-71
2022/11/14 08:39:44;;;;;;;11.38;6.90;;;;;;;7.16;42.64;100903.72;4892464;29;20071;-72
2022/11/14 08:42:30;;;;;;;9.77;6.72;;;;;;;7.17;42.52;100894.59;4890021;29;20212;-72
2022/11/14 08:45:19;;;;;;;10.25;6.60;;;;;;;7.20;42.80;100895.22;4883914;29;20258;-72
2022/11/14 08:48:06;;;;;;;10.52;7.13;;;;;;;7.21;42.76;100893.34;4889836;29;20605;-71
2022/11/14 08:50:52;;;;;;;9.98;7.13;;;;;;;7.24;42.45;100886.84;4889027;29;20462;-71
2022/11/14 08:53:39;;;;;;;12.52;7.05;;;;;;;7.26;42.68;100883.03;4892411;29;20091;-70
2022/11/14 08:56:25;;;;;;;11.40;6.90;;;;;;;7.29;42.48;100881.91;4890005;29;20056;-71
2022/11/14 08:59:12;;;;;;;10.50;7.03;;;;;;;7.29;42.61;100877.34;4890958;29;20075;-71
2022/11/14 09:01:59;;;;;;;10.32;7.40;;;;;;;7.34;42.67;100890.63;4886536;29;20055;-70
2022/11/14 09:04:46;;;;;;;11.90;7.15;;;;;;;7.33;42.65;100881.59;4890077;29;20569;-70
2022/11/14 09:07:33;;;;;;;12.43;7.95;;;;;;;7.35;42.87;100886.94;4889220;29;20059;-71
2022/11/14 09:10:19;;;;;;;12.90;8.00;;;;;;;7.38;42.92;100897.56;4892059;29;20059;-70
2022/11/14 09:13:05;;;;;;;11.32;7.03;;;;;;;7.39;42.97;100902.91;4889711;29;20111;-70
2022/11/14 09:15:53;;;;;;;12.57;7.22;;;;;;;7.41;42.77;100900.94;4888829;29;20054;-71
2022/11/14 09:18:40;;;;;;;13.95;8.18;;;;;;;7.43;43.07;100909.00;4889467;29;20153;-71
2022/11/14 09:21:27;;;;;;;15.52;8.43;;;;;;;7.43;43.00;100889.94;4891232;29;20181;-71
2022/11/14 09:24:14;;;;;;;16.00;9.50;;;;;;;7.43;42.96;100904.44;4890507;29;20139;-71
2022/11/14 09:27:00;;;;;;;14.80;8.75;;;;;;;7.45;43.20;100907.03;4887607;29;20059;-71
2022/11/14 09:29:46;;;;;;;16.15;9.27;;;;;;;7.43;43.16;100907.16;4890653;29;20054;-71
2022/11/14 09:32:32;;;;;;;15.25;8.73;;;;;;;7.45;42.95;100904.28;4888338;29;20050;-71
2022/11/14 09:35:20;;;;;;;14.32;8.55;;;;;;;7.47;43.13;100905.94;4883595;29;20139;-71
2022/11/14 09:38:08;;;;;;;14.98;8.63;;;;;;;7.48;43.37;100896.78;4887114;29;20345;-71
2022/11/14 09:41:04;;;;;;;14.52;8.80;;;;;;;7.51;43.88;100898.41;4885313;29;20083;-71
2022/11/14 09:44:18;;;;;;;13.70;8.73;;;;;;;7.51;43.53;100898.41;4884632;29;20055;-71
2022/11/14 09:47:11;;;;;;;16.73;9.07;;;;;;;7.52;43.46;100901.00;4884714;29;20602;-70
2022/11/14 09:50:11;;;;;;;13.65;7.97;;;;;;;7.53;43.48;100897.31;4890442;29;20071;-71
2022/11/14 09:53:05;;;;;;;14.57;8.02;;;;;;;7.54;44.07;100899.03;4883919;29;20530;-71
2022/11/14 09:55:52;;;;;;;11.25;7.55;;;;;;;7.54;43.24;100890.88;4887975;29;20056;-70
2022/11/14 09:58:40;;;;;;;12.10;7.50;;;;;;;7.55;43.66;100879.00;4885086;29;20051;-71
2022/11/14 10:01:43;;;;;;;12.02;7.55;;;;;;;7.58;44.32;100877.91;4890378;29;20052;-71
2022/11/14 10:04:49;;;;;;;12.02;7.68;;;;;;;7.57;44.04;100868.88;4889297;29;20302;-71
2022/11/14 10:07:49;;;;;;;13.93;7.63;;;;;;;7.58;44.27;100867.03;4887242;29;20052;-71
2022/11/14 10:10:53;;;;;;;14.43;7.72;;;;;;;7.61;44.32;100872.22;4889273;29;20298;-71
2022/11/14 10:14:11;;;;;;;11.82;6.88;;;;;;;7.62;44.16;100871.22;4888330;29;20422;-71
2022/11/14 10:17:14;;;;;;;11.43;6.78;;;;;;;7.64;44.57;100866.56;4887743;29;20059;-71
2022/11/14 10:20:11;;;;;;;9.80;6.28;;;;;;;7.68;44.33;100878.09;4884783;29;20068;-71
2022/11/14 10:23:12;;;;;;;11.35;6.43;;;;;;;7.71;44.12;100858.78;4880507;29;20051;-71
2022/11/14 10:26:09;;;;;;;10.85;7.13;;;;;;;7.72;44.22;100852.34;4887359;29;20055;-70
2022/11/14 10:29:12;;;;;;;12.07;6.80;;;;;;;7.73;44.58;100854.09;4889501;29;20132;-71
2022/11/14 10:32:08;;;;;;;11.40;6.68;;;;;;;7.74;44.18;100848.53;4889517;29;20516;-71
2022/11/14 10:34:59;;;;;;;10.38;7.03;;;;;;;7.76;44.00;100842.97;4895459;29;20063;-71
2022/11/14 10:37:55;;;;;;;10.85;6.20;;;;;;;7.79;44.28;100835.41;4884388;29;20069;-70
2022/11/14 10:40:45;;;;;;;10.88;6.60;;;;;;;7.80;44.06;100845.34;4886266;29;20533;-69
2022/11/14 10:43:39;;;;;;;10.20;5.97;;;;;;;7.84;44.26;100838.69;4895590;29;20060;-69
2022/11/14 10:46:30;;;;;;;9.25;6.13;;;;;;;7.87;44.29;100832.09;4888852;29;20048;-69
2022/11/14 10:49:20;;;;;;;11.63;6.55;;;;;;;7.89;44.23;100830.13;4903807;29;20063;-70
2022/11/14 10:52:13;;;;;;;12.15;7.30;;;;;;;7.91;44.47;100839.94;4895026;29;20056;-69
2022/11/14 10:55:06;;;;;;;11.07;7.32;;;;;;;7.92;44.36;100846.25;4904573;29;20112;-69
2022/11/14 10:57:53;;;;;;;12.55;7.20;;;;;;;7.93;44.43;100846.13;4914601;29;20115;-70
2022/11/14 11:00:40;;;;;;;8.90;6.40;;;;;;;7.99;44.25;100839.34;4914997;29;20075;-69
2022/11/14 11:03:42;;;;;;;11.07;6.55;;;;;;;8.01;44.57;100831.94;4914633;29;20059;-70
2022/11/14 11:06:29;;;;;;;10.18;6.43;;;;;;;8.02;44.16;100832.78;4893172;29;20059;-69
2022/11/14 11:12:44;;;;;;;11.23;7.25;;;;;;;8.09;44.93;100844.97;4914469;29;20056;-69
2022/11/14 11:15:32;;;;;;;10.52;6.70;;;;;;;8.08;44.26;100830.47;4915229;29;20051;-69
2022/11/14 11:18:28;;;;;;;9.68;6.45;;;;;;;8.14;44.65;100812.78;4914085;29;20104;-69
2022/11/14 11:21:18;;;;;;;10.10;6.53;;;;;;;8.13;44.48;100809.19;4900439;29;20452;-70
2022/11/14 11:24:05;;;;;;;11.63;6.97;;;;;;;8.15;44.33;100820.84;4896040;29;20188;-69
2022/11/14 11:27:12;;;;;;;11.63;7.88;;;;;;;8.20;45.01;100817.75;4889842;29;20071;-68
2022/11/14 11:30:18;;;;;;;11.38;7.10;;;;;;;8.23;45.05;100812.06;4873759;29;20056;-70
2022/11/14 11:33:23;;;;;;;12.35;7.93;;;;;;;8.27;45.39;100808.97;4889883;29;20558;-71
2022/11/14 11:36:15;;;;;;;11.80;6.90;;;;;;;8.32;44.95;100805.88;4893091;29;20060;-71
2022/11/14 11:39:02;;;;;;;11.52;7.43;;;;;;;8.33;44.53;100807.63;4911787;29;20139;-71
2022/11/14 11:41:49;;;;;;;13.07;7.65;;;;;;;8.39;44.53;100798.09;4913258;29;20524;-71
2022/11/14 11:45:00;;;;;;;11.63;7.63;;;;;;;8.44;44.92;100804.03;4914721;29;20473;-71
2022/11/14 11:47:56;;;;;;;12.32;7.50;;;;;;;8.49;45.00;100802.69;4912925;29;20050;-71
2022/11/14 11:50:43;;;;;;;10.93;7.15;;;;;;;8.51;44.53;100797.09;4913878;29;20063;-71
2022/11/14 11:53:37;;;;;;;12.32;7.65;;;;;;;8.56;44.56;100783.97;4910153;29;20418;-71
2022/11/14 11:56:27;;;;;;;12.10;7.25;;;;;;;8.59;44.68;100768.22;4893520;29;20530;-71
2022/11/14 11:59:24;;;;;;;11.50;7.55;;;;;;;8.65;44.79;100767.75;4895033;29;20055;-71
2022/11/14 12:02:21;;;;;;;11.93;7.72;;;;;;;8.70;44.71;100770.06;4894270;29;20177;-71
2022/11/14 12:05:15;;;;;;;11.55;7.35;;;;;;;8.73;44.78;100771.69;4876700;29;20064;-71
2022/11/14 12:08:06;;;;;;;11.43;6.72;;;;;;;8.76;44.49;100763.25;4889193;29;20135;-71
2022/11/14 12:10:54;;;;;;;13.57;7.20;;;;;;;8.81;44.72;100745.53;4895107;29;20518;-70
2022/11/14 12:14:00;;;;;;;12.93;7.72;;;;;;;8.88;44.58;100740.41;4876007;29;20136;-70
2022/11/14 12:17:04;;;;;;;13.52;7.72;;;;;;;8.90;44.66;100727.53;4874652;29;20426;-71
2022/11/14 12:20:11;;;;;;;11.02;6.90;;;;;;;8.94;44.38;100720.81;4875736;29;20476;-71
2022/11/14 12:23:23;;;;;;;11.40;6.90;;;;;;;8.97;44.55;100712.38;4875353;29;20056;-71
2022/11/14 12:26:24;;;;;;;12.25;6.97;;;;;;;9.00;44.54;100702.03;4875484;29;20067;-71
2022/11/14 12:29:25;;;;;;;11.57;7.35;;;;;;;9.04;44.50;100713.59;4875408;29;20355;-71
2022/11/14 12:32:17;;;;;;;12.50;7.45;;;;;;;9.05;44.42;100709.88;4875134;29;20059;-71
2022/11/14 12:35:06;;;;;;;12.00;6.90;;;;;;;9.07;44.00;100705.16;4893557;29;20063;-71
2022/11/14 12:37:55;;;;;;;11.48;7.03;;;;;;;9.10;44.45;100708.47;4908770;29;20614;-71
2022/11/14 12:40:53;;;;;;;10.77;6.53;;;;;;;9.14;44.40;100705.50;4912336;29;20074;-71
2022/11/14 12:43:42;;;;;;;11.27;7.00;;;;;;;9.15;44.39;100702.66;4893411;29;20173;-71
2022/11/14 12:47:08;;;;;;;11.68;7.35;;;;;;;9.18;44.36;100704.22;4893486;29;20092;-71
2022/11/14 12:50:28;;;;;;;11.98;6.88;;;;;;;9.15;44.26;100693.59;4893747;29;20104;-71
2022/11/14 12:53:41;;;;;;;12.18;8.20;;;;;;;9.20;44.39;100708.56;4874701;29;20059;-71
2022/11/14 12:56:58;;;;;;;12.10;7.45;;;;;;;9.20;44.30;100710.44;4880948;29;20063;-69
2022/11/14 12:59:57;;;;;;;12.05;7.40;;;;;;;9.25;44.56;100706.31;4893966;29;20282;-69
2022/11/14 13:03:10;;;;;;;11.85;7.57;;;;;;;9.27;44.36;100714.38;4890188;29;20303;-69
2022/11/14 13:06:00;;;;;;;;;;;;;;;9.02;44.86;100734.69;4899328;29;20075;-70
2022/11/14 13:09:30;;;;;;;11.77;7.15;;;;;;;9.29;44.62;100731.50;4892601;29;19933;-69
2022/11/14 13:22:33;;;;;;;13.60;8.10;;;;;;;9.28;44.59;100738.84;4892335;29;20251;-69
2022/11/14 13:25:22;;;;;;;15.20;8.82;;;;;;;9.26;44.05;100735.34;4892862;29;20060;-69
2022/11/14 13:28:43;;;;;;;14.50;9.05;;;;;;;9.27;44.12;100738.97;4906387;29;20058;-69